createdAt,value
2017-05-07T00:00:49.642Z,9.80
2017-05-07T00:03:18.806Z,9.70
2017-05-07T00:05:48.012Z,9.90
2017-05-07T00:08:17.182Z,9.90
2017-05-07T00:10:46.373Z,9.90
2017-05-07T00:13:15.573Z,9.90
2017-05-07T00:15:44.754Z,10.00
2017-05-07T00:18:13.940Z,10.00
2017-05-07T00:20:43.142Z,10.00
2017-05-07T00:23:12.333Z,10.00
2017-05-07T00:25:41.521Z,10.10
2017-05-07T00:28:10.744Z,10.10
2017-05-07T00:30:39.922Z,10.10
2017-05-07T00:33:09.089Z,10.20
2017-05-07T00:35:38.283Z,10.20
2017-05-07T00:38:07.462Z,10.30
2017-05-07T00:40:36.792Z,10.40
2017-05-07T00:43:06.006Z,10.40
2017-05-07T00:45:35.178Z,10.40
2017-05-07T00:48:04.370Z,10.50
2017-05-07T00:50:33.562Z,10.50
2017-05-07T00:53:02.733Z,10.60
2017-05-07T00:55:31.909Z,10.60
2017-05-07T00:58:01.105Z,10.60
2017-05-07T01:00:30.279Z,10.60
2017-05-07T01:02:59.461Z,10.60
2017-05-07T01:05:28.653Z,10.60
2017-05-07T01:07:57.831Z,10.50
2017-05-07T01:10:27.018Z,10.50
2017-05-07T01:12:55.462Z,10.40
2017-05-07T01:15:24.638Z,10.30
2017-05-07T01:17:53.818Z,10.30
2017-05-07T01:20:23.009Z,10.30
2017-05-07T01:22:52.184Z,10.20
2017-05-07T01:25:21.359Z,10.30
2017-05-07T01:27:50.565Z,10.30
2017-05-07T01:30:19.573Z,10.20
2017-05-07T01:32:48.752Z,10.10
2017-05-07T01:35:17.966Z,10.10
2017-05-07T01:37:47.147Z,10.10
2017-05-07T01:40:16.322Z,10.00
2017-05-07T01:42:45.520Z,10.00
2017-05-07T01:45:14.693Z,9.90
2017-05-07T01:47:43.864Z,9.90
2017-05-07T01:50:12.720Z,9.90
2017-05-07T01:52:41.895Z,9.90
2017-05-07T01:55:11.057Z,9.90
2017-05-07T01:57:40.250Z,9.90
2017-05-07T02:00:09.423Z,9.90
2017-05-07T02:02:38.593Z,9.80
2017-05-07T02:05:07.448Z,9.80
2017-05-07T02:07:36.618Z,9.80
2017-05-07T02:10:05.780Z,9.80
2017-05-07T02:12:34.975Z,9.80
2017-05-07T02:15:04.162Z,9.90
2017-05-07T02:17:33.338Z,9.90
2017-05-07T02:20:02.522Z,9.90
2017-05-07T02:22:31.686Z,9.90
2017-05-07T02:25:00.856Z,10.00
2017-05-07T02:27:30.057Z,10.10
2017-05-07T02:29:58.482Z,10.10
2017-05-07T02:32:27.658Z,10.00
2017-05-07T02:34:56.105Z,10.10
2017-05-07T02:37:25.293Z,10.10
2017-05-07T02:39:54.466Z,10.00
2017-05-07T02:42:23.677Z,10.00
2017-05-07T02:44:52.944Z,10.00
2017-05-07T02:47:22.123Z,10.00
2017-05-07T02:49:50.565Z,10.00
2017-05-07T02:52:19.746Z,9.90
2017-05-07T02:54:48.924Z,9.90
2017-05-07T02:57:18.131Z,9.90
2017-05-07T02:59:47.320Z,9.80
2017-05-07T03:02:16.497Z,9.80
2017-05-07T03:04:45.693Z,9.80
2017-05-07T03:07:14.865Z,9.70
2017-05-07T03:09:44.034Z,9.70
2017-05-07T03:12:13.243Z,9.70
2017-05-07T03:14:42.418Z,9.60
2017-05-07T03:17:11.595Z,9.60
2017-05-07T03:19:40.798Z,9.50
2017-05-07T03:22:09.974Z,9.50
2017-05-07T03:24:39.147Z,9.50
2017-05-07T03:27:08.365Z,9.50
2017-05-07T03:29:36.772Z,9.50
2017-05-07T03:32:05.946Z,9.60
2017-05-07T03:34:35.150Z,9.60
2017-05-07T03:37:03.562Z,9.60
2017-05-07T03:39:32.730Z,9.60
2017-05-07T03:42:01.166Z,9.60
2017-05-07T03:44:30.342Z,9.60
2017-05-07T03:46:59.514Z,9.60
2017-05-07T03:49:28.707Z,9.70
2017-05-07T03:51:57.874Z,9.70
2017-05-07T03:54:27.052Z,9.60
2017-05-07T03:56:56.241Z,9.60
2017-05-07T03:59:24.650Z,9.60
2017-05-07T04:01:53.821Z,9.70
2017-05-07T04:04:23.034Z,9.60
2017-05-07T04:06:52.201Z,9.70
2017-05-07T04:09:21.371Z,9.70
2017-05-07T04:11:50.574Z,9.70
2017-05-07T04:14:19.737Z,9.70
2017-05-07T04:16:48.916Z,9.80
2017-05-07T04:19:18.113Z,9.80
2017-05-07T04:21:47.287Z,9.80
2017-05-07T04:24:16.462Z,9.80
2017-05-07T04:26:45.671Z,9.90
2017-05-07T04:29:14.846Z,9.90
2017-05-07T04:31:44.030Z,10.00
2017-05-07T04:34:13.243Z,10.10
2017-05-07T04:36:42.417Z,10.10
2017-05-07T04:39:11.595Z,10.20
2017-05-07T04:41:40.802Z,10.20
2017-05-07T04:44:09.986Z,10.30
2017-05-07T04:46:38.403Z,10.30
2017-05-07T04:49:07.602Z,10.50
2017-05-07T04:51:36.781Z,10.50
2017-05-07T04:54:05.972Z,10.50
2017-05-07T04:56:35.166Z,10.50
2017-05-07T04:59:04.352Z,10.50
2017-05-07T05:01:33.529Z,10.60
2017-05-07T05:04:02.750Z,10.70
2017-05-07T05:06:31.926Z,10.90
2017-05-07T05:09:01.102Z,11.00
2017-05-07T05:11:30.323Z,11.00
2017-05-07T05:13:59.494Z,11.10
2017-05-07T05:16:27.907Z,11.10
2017-05-07T05:18:59.814Z,11.20
2017-05-07T05:21:43.521Z,11.20
2017-05-07T05:24:29.813Z,11.10
2017-05-07T05:27:06.324Z,11.10
2017-05-07T05:30:04.735Z,11.10
2017-05-07T05:32:33.906Z,11.20
2017-05-07T05:35:03.109Z,11.20
2017-05-07T05:37:32.314Z,11.20
2017-05-07T05:40:01.489Z,11.40
2017-05-07T05:42:29.201Z,11.40
2017-05-07T05:44:58.410Z,11.60
2017-05-07T05:47:27.589Z,11.70
2017-05-07T05:49:56.766Z,11.80
2017-05-07T05:52:25.956Z,12.00
2017-05-07T05:54:55.122Z,12.10
2017-05-07T05:57:23.530Z,12.00
2017-05-07T05:59:52.733Z,12.10
2017-05-07T06:02:21.138Z,12.10
2017-05-07T06:04:50.312Z,12.00
2017-05-07T06:07:19.508Z,12.00
2017-05-07T06:09:48.689Z,12.00
2017-05-07T06:12:17.103Z,12.00
2017-05-07T06:14:46.297Z,11.80
2017-05-07T06:17:15.480Z,11.90
2017-05-07T06:19:44.662Z,12.10
2017-05-07T06:22:13.878Z,12.20
2017-05-07T06:24:43.055Z,12.20
2017-05-07T06:27:12.240Z,12.30
2017-05-07T06:29:41.449Z,12.30
2017-05-07T06:32:13.506Z,12.30
2017-05-07T06:34:42.718Z,12.40
2017-05-07T06:37:11.897Z,12.50
2017-05-07T06:39:41.070Z,12.70
2017-05-07T06:42:09.189Z,12.70
2017-05-07T06:44:38.374Z,12.90
2017-05-07T06:47:06.791Z,12.90
2017-05-07T06:49:35.268Z,12.90
2017-05-07T06:52:04.437Z,13.30
2017-05-07T06:54:33.622Z,13.30
2017-05-07T06:57:02.833Z,13.40
2017-05-07T06:59:32.010Z,13.30
2017-05-07T07:02:01.189Z,13.30
2017-05-07T07:04:30.399Z,13.30
2017-05-07T07:06:59.573Z,13.30
2017-05-07T07:09:28.054Z,13.40
2017-05-07T07:11:57.290Z,13.50
2017-05-07T07:14:26.465Z,13.70
2017-05-07T07:16:55.654Z,13.90
2017-05-07T07:19:24.862Z,14.20
2017-05-07T07:21:54.042Z,14.40
2017-05-07T07:24:22.446Z,14.40
2017-05-07T07:26:51.657Z,14.70
2017-05-07T07:29:20.841Z,14.70
2017-05-07T07:31:50.018Z,14.90
2017-05-07T07:34:18.467Z,14.90
2017-05-07T07:36:47.634Z,15.00
2017-05-07T07:39:16.822Z,15.10
2017-05-07T07:41:46.041Z,15.20
2017-05-07T07:44:15.293Z,15.30
2017-05-07T07:46:44.468Z,15.40
2017-05-07T07:49:12.897Z,15.30
2017-05-07T07:51:42.086Z,15.80
2017-05-07T07:54:10.494Z,15.80
2017-05-07T07:56:39.697Z,16.30
2017-05-07T07:59:08.118Z,16.30
2017-05-07T08:01:37.302Z,16.40
2017-05-07T08:04:05.730Z,16.30
2017-05-07T08:06:34.897Z,16.50
2017-05-07T08:09:03.221Z,16.50
2017-05-07T08:11:32.442Z,16.60
2017-05-07T08:14:00.848Z,16.60
2017-05-07T08:16:30.027Z,18.20
2017-05-07T08:18:59.244Z,18.60
2017-05-07T08:21:28.426Z,18.50
2017-05-07T08:23:57.596Z,18.70
2017-05-07T08:26:26.832Z,19.20
2017-05-07T08:28:55.254Z,19.20
2017-05-07T08:31:24.438Z,20.10
2017-05-07T08:33:53.650Z,20.20
2017-05-07T08:36:22.826Z,20.40
2017-05-07T08:38:51.230Z,20.40
2017-05-07T08:41:20.426Z,20.30
2017-05-07T08:43:49.663Z,20.70
2017-05-07T08:46:18.834Z,21.30
2017-05-07T08:48:48.046Z,21.40
2017-05-07T08:51:17.218Z,22.00
2017-05-07T08:53:46.397Z,23.70
2017-05-07T08:56:15.606Z,23.90
2017-05-07T08:58:44.774Z,22.70
2017-05-07T09:01:13.953Z,22.80
2017-05-07T09:03:43.147Z,23.60
2017-05-07T09:06:11.587Z,23.60
2017-05-07T09:08:40.774Z,25.50
2017-05-07T09:11:08.334Z,25.50
2017-05-07T09:14:06.568Z,24.70
2017-05-07T09:16:35.615Z,24.70
2017-05-07T09:19:04.828Z,23.00
2017-05-07T09:21:34.003Z,22.70
2017-05-07T09:24:03.214Z,23.10
2017-05-07T09:26:32.394Z,23.10
2017-05-07T09:29:01.012Z,23.10
2017-05-07T09:31:30.444Z,23.80
2017-05-07T09:33:59.614Z,23.40
2017-05-07T09:36:28.026Z,23.40
2017-05-07T09:38:57.242Z,22.80
2017-05-07T09:41:26.414Z,22.00
2017-05-07T09:43:55.586Z,22.00
2017-05-07T09:46:24.794Z,21.80
2017-05-07T09:48:53.209Z,21.80
2017-05-07T09:51:21.628Z,22.00
2017-05-07T09:53:50.839Z,23.30
2017-05-07T09:56:20.018Z,23.80
2017-05-07T09:58:48.845Z,23.90
2017-05-07T10:01:18.045Z,23.90
2017-05-07T10:03:47.253Z,24.10
2017-05-07T10:06:16.434Z,24.80
2017-05-07T10:08:44.865Z,24.80
2017-05-07T10:11:14.046Z,25.40
2017-05-07T10:13:42.459Z,25.30
2017-05-07T10:16:11.650Z,23.90
2017-05-07T10:18:40.153Z,23.80
2017-05-07T10:21:09.334Z,22.00
2017-05-07T10:23:38.619Z,22.00
2017-05-07T10:26:07.797Z,22.20
2017-05-07T10:28:36.973Z,22.50
2017-05-07T10:31:06.181Z,22.20
2017-05-07T10:33:35.361Z,22.40
2017-05-07T10:36:04.541Z,22.00
2017-05-07T10:38:32.993Z,22.00
2017-05-07T10:41:02.171Z,22.30
2017-05-07T10:43:30.577Z,22.20
2017-05-07T10:45:59.802Z,22.80
2017-05-07T10:48:29.029Z,23.00
2017-05-07T10:50:58.302Z,23.00
2017-05-07T10:53:26.756Z,22.90
2017-05-07T10:55:55.941Z,23.50
2017-05-07T10:58:24.357Z,23.50
2017-05-07T11:00:53.564Z,23.50
2017-05-07T11:03:21.970Z,23.50
2017-05-07T11:05:51.134Z,22.80
2017-05-07T11:08:20.353Z,23.40
2017-05-07T11:10:49.524Z,24.10
2017-05-07T11:13:18.697Z,24.10
2017-05-07T11:15:47.905Z,24.20
2017-05-07T11:18:17.081Z,24.50
2017-05-07T11:20:46.254Z,24.70
2017-05-07T11:23:15.453Z,24.80
2017-05-07T11:25:44.625Z,24.80
2017-05-07T11:28:16.673Z,25.10
2017-05-07T11:30:46.029Z,24.90
2017-05-07T11:33:15.210Z,25.30
2017-05-07T11:35:44.405Z,25.50
2017-05-07T11:38:13.601Z,24.80
2017-05-07T11:40:42.786Z,25.00
2017-05-07T11:43:11.961Z,24.50
2017-05-07T11:45:41.149Z,24.20
2017-05-07T11:48:10.329Z,24.40
2017-05-07T11:50:39.319Z,24.50
2017-05-07T11:53:08.525Z,24.40
2017-05-07T11:55:37.702Z,24.50
2017-05-07T11:58:06.898Z,24.40
2017-05-07T12:00:36.778Z,24.30
2017-05-07T12:03:05.954Z,24.80
2017-05-07T12:05:35.138Z,24.40
2017-05-07T12:08:04.357Z,24.30
2017-05-07T12:10:32.762Z,24.30
2017-05-07T12:13:01.951Z,24.40
2017-05-07T12:15:31.163Z,24.50
2017-05-07T12:18:00.341Z,25.30
2017-05-07T12:20:29.509Z,25.10
2017-05-07T12:22:58.709Z,25.00
2017-05-07T12:25:27.887Z,25.00
2017-05-07T12:27:57.074Z,25.00
2017-05-07T12:30:26.294Z,24.00
2017-05-07T12:32:55.472Z,24.40
2017-05-07T12:35:24.657Z,24.50
2017-05-07T12:37:53.862Z,24.40
2017-05-07T12:40:23.049Z,24.00
2017-05-07T12:42:51.453Z,24.00
2017-05-07T12:45:20.649Z,24.20
2017-05-07T12:47:49.071Z,24.20
2017-05-07T12:50:17.485Z,24.10
2017-05-07T12:52:46.685Z,22.80
2017-05-07T12:55:15.868Z,22.20
2017-05-07T12:57:45.045Z,21.70
2017-05-07T13:00:14.246Z,21.40
2017-05-07T13:02:43.442Z,21.30
2017-05-07T13:05:12.622Z,21.00
2017-05-07T13:07:41.829Z,20.90
2017-05-07T13:10:10.997Z,20.90
2017-05-07T13:12:40.170Z,20.80
2017-05-07T13:15:09.387Z,20.90
2017-05-07T13:17:38.570Z,20.80
2017-05-07T13:20:07.743Z,20.70
2017-05-07T13:22:36.942Z,20.50
2017-05-07T13:25:06.115Z,20.80
2017-05-07T13:27:35.292Z,20.70
2017-05-07T13:30:04.500Z,20.70
2017-05-07T13:32:33.678Z,20.80
2017-05-07T13:35:02.875Z,21.00
2017-05-07T13:37:32.078Z,21.30
2017-05-07T13:40:01.454Z,21.30
2017-05-07T13:42:30.619Z,21.30
2017-05-07T13:44:59.817Z,21.60
2017-05-07T13:47:28.991Z,21.50
2017-05-07T13:49:57.408Z,21.50
2017-05-07T13:52:25.845Z,21.70
2017-05-07T13:54:55.022Z,22.10
2017-05-07T13:57:24.192Z,22.40
2017-05-07T13:59:53.397Z,22.40
2017-05-07T14:02:22.570Z,22.50
2017-05-07T14:04:51.737Z,22.50
2017-05-07T14:07:20.947Z,22.00
2017-05-07T14:09:50.133Z,21.70
2017-05-07T14:12:19.306Z,22.20
2017-05-07T14:14:48.502Z,21.90
2017-05-07T14:17:17.678Z,21.70
2017-05-07T14:19:46.851Z,21.80
2017-05-07T14:22:16.047Z,21.90
2017-05-07T14:24:45.217Z,22.20
2017-05-07T14:27:14.394Z,22.20
2017-05-07T14:29:42.843Z,22.20
2017-05-07T14:32:12.030Z,21.90
2017-05-07T14:34:41.205Z,21.70
2017-05-07T14:37:09.650Z,21.70
2017-05-07T14:39:38.829Z,22.10
2017-05-07T14:42:07.238Z,22.10
2017-05-07T14:44:36.442Z,21.90
2017-05-07T14:47:05.614Z,21.70
2017-05-07T14:49:34.794Z,21.40
2017-05-07T14:52:04.014Z,21.40
2017-05-07T14:54:33.199Z,21.20
2017-05-07T14:57:01.610Z,21.10
2017-05-07T14:59:30.823Z,20.70
2017-05-07T15:02:00.002Z,20.40
2017-05-07T15:04:29.175Z,20.20
2017-05-07T15:06:58.370Z,20.00
2017-05-07T15:09:27.533Z,19.70
2017-05-07T15:11:56.705Z,19.60
2017-05-07T15:14:25.905Z,19.40
2017-05-07T15:16:55.087Z,19.30
2017-05-07T15:19:23.494Z,19.20
2017-05-07T15:21:51.944Z,19.20
2017-05-07T15:24:20.352Z,19.20
2017-05-07T15:26:49.557Z,19.10
2017-05-07T15:29:18.765Z,18.80
2017-05-07T15:31:47.961Z,18.70
2017-05-07T15:34:16.370Z,18.70
2017-05-07T15:36:45.582Z,18.80
2017-05-07T15:39:14.759Z,18.90
2017-05-07T15:41:43.946Z,18.90
2017-05-07T15:44:12.817Z,18.80
2017-05-07T15:46:41.997Z,18.90
2017-05-07T15:49:11.183Z,18.90
2017-05-07T15:51:40.393Z,18.90
2017-05-07T15:54:08.808Z,18.90
2017-05-07T15:56:37.981Z,18.80
2017-05-07T15:59:07.164Z,19.00
2017-05-07T16:01:36.336Z,18.90
2017-05-07T16:04:05.637Z,18.90
2017-05-07T16:06:34.742Z,18.90
2017-05-07T16:09:03.382Z,18.90
2017-05-07T16:11:32.577Z,19.00
2017-05-07T16:14:00.986Z,19.00
2017-05-07T16:17:01.029Z,19.10
2017-05-07T16:19:44.738Z,19.20
2017-05-07T16:25:35.780Z,19.30
2017-05-07T16:28:05.022Z,19.20
2017-05-07T16:30:34.909Z,19.30
2017-05-07T16:33:04.741Z,19.40
2017-05-07T16:35:33.914Z,19.20
2017-05-07T16:38:03.106Z,19.20
2017-05-07T16:40:33.037Z,19.20
2017-05-07T16:43:02.213Z,19.00
2017-05-07T16:45:31.410Z,19.00
2017-05-07T16:48:01.326Z,18.80
2017-05-07T16:50:31.274Z,18.70
2017-05-07T16:53:00.463Z,18.70
2017-05-07T16:55:29.641Z,18.60
2017-05-07T16:57:59.569Z,18.50
2017-05-07T17:00:28.774Z,18.40
2017-05-07T17:03:03.292Z,18.30
2017-05-07T17:05:32.277Z,18.20
2017-05-07T17:08:02.194Z,18.00
2017-05-07T17:10:32.137Z,18.00
2017-05-07T17:13:01.116Z,18.00
2017-05-07T17:15:30.318Z,18.00
2017-05-07T17:17:59.493Z,17.80
2017-05-07T17:20:29.431Z,17.80
2017-05-07T17:22:58.614Z,17.70
2017-05-07T17:25:28.526Z,17.70
2017-05-07T17:27:57.719Z,17.70
2017-05-07T17:30:27.691Z,17.60
2017-05-07T17:32:56.860Z,17.60
2017-05-07T17:35:26.042Z,17.50
2017-05-07T17:37:55.961Z,17.40
2017-05-07T17:40:25.895Z,17.40
2017-05-07T17:42:55.061Z,17.40
2017-05-07T17:45:23.891Z,17.30
2017-05-07T17:47:53.077Z,17.20
2017-05-07T17:50:22.270Z,17.30
2017-05-07T17:52:52.213Z,17.20
2017-05-07T17:55:22.297Z,17.20
2017-05-07T17:57:52.256Z,17.20
2017-05-07T18:00:21.989Z,17.20
2017-05-07T18:02:51.797Z,17.20
2017-05-07T18:05:21.541Z,17.10
2017-05-07T18:07:51.895Z,17.00
2017-05-07T18:10:21.110Z,17.10
2017-05-07T18:12:50.314Z,17.10
2017-05-07T18:15:19.662Z,17.00
2017-05-07T18:17:48.841Z,17.10
2017-05-07T18:20:18.290Z,17.00
2017-05-07T18:22:47.478Z,16.90
2017-05-07T18:25:17.386Z,16.80
2017-05-07T18:27:47.324Z,16.80
2017-05-07T18:30:16.502Z,16.70
2017-05-07T18:32:46.426Z,16.60
2017-05-07T18:35:16.366Z,16.50
2017-05-07T18:37:45.541Z,16.50
2017-05-07T18:40:15.462Z,16.40
2017-05-07T18:42:45.382Z,16.20
2017-05-07T18:45:14.565Z,16.10
2017-05-07T18:47:44.494Z,15.90
2017-05-07T18:50:14.404Z,15.70
2017-05-07T18:52:44.332Z,15.50
2017-05-07T18:55:13.501Z,15.40
2017-05-07T18:57:42.691Z,15.30
2017-05-07T19:00:11.874Z,15.20
2017-05-07T19:02:41.046Z,15.10
2017-05-07T19:05:10.241Z,15.00
2017-05-07T19:07:39.415Z,14.90
2017-05-07T19:10:09.341Z,14.80
2017-05-07T19:12:38.537Z,14.70
2017-05-07T19:15:07.714Z,14.50
2017-05-07T19:17:37.658Z,14.50
2017-05-07T19:20:06.884Z,14.40
2017-05-07T19:22:36.051Z,14.30
2017-05-07T19:25:05.228Z,14.30
2017-05-07T19:27:35.142Z,14.20
2017-05-07T19:30:04.329Z,14.10
2017-05-07T19:32:33.489Z,13.90
2017-05-07T19:35:02.674Z,13.80
2017-05-07T19:37:31.846Z,13.80
2017-05-07T19:40:01.149Z,13.60
2017-05-07T19:42:31.066Z,13.60
2017-05-07T19:45:01.005Z,13.50
2017-05-07T19:47:30.178Z,13.50
2017-05-07T19:50:00.170Z,13.40
2017-05-07T19:52:29.349Z,13.30
2017-05-07T19:54:58.519Z,13.20
2017-05-07T19:57:27.709Z,13.20
2017-05-07T19:59:56.901Z,13.20
2017-05-07T20:02:26.074Z,13.10
2017-05-07T20:04:55.330Z,13.00
2017-05-07T20:07:24.494Z,13.00
2017-05-07T20:09:53.666Z,13.00
2017-05-07T20:12:22.853Z,12.90
2017-05-07T20:14:52.038Z,12.80
2017-05-07T20:17:21.207Z,12.80
2017-05-07T20:19:50.389Z,12.70
2017-05-07T20:22:19.562Z,12.70
2017-05-07T20:24:48.786Z,12.60
2017-05-07T20:27:17.957Z,12.50
2017-05-07T20:29:47.142Z,12.50
2017-05-07T20:32:16.326Z,12.50
2017-05-07T20:34:45.516Z,12.40
2017-05-07T20:37:14.693Z,12.30
2017-05-07T20:39:43.882Z,12.20
2017-05-07T20:42:13.073Z,12.10
2017-05-07T20:44:42.279Z,12.10
2017-05-07T20:47:11.449Z,12.10
2017-05-07T20:49:40.625Z,12.00
2017-05-07T20:52:09.809Z,11.90
2017-05-07T20:54:38.985Z,11.80
2017-05-07T20:57:08.188Z,11.70
2017-05-07T20:59:38.082Z,11.60
2017-05-07T21:02:07.278Z,11.60
2017-05-07T21:04:37.205Z,11.40
2017-05-07T21:07:06.190Z,11.30
2017-05-07T21:09:35.374Z,11.30
2017-05-07T21:12:05.307Z,11.10
2017-05-07T21:14:34.494Z,11.10
2017-05-07T21:17:04.410Z,11.00
2017-05-07T21:19:34.358Z,10.80
2017-05-07T21:22:03.529Z,10.80
2017-05-07T21:24:33.457Z,10.70
2017-05-07T21:27:02.658Z,10.60
2017-05-07T21:29:31.829Z,10.50
2017-05-07T21:32:01.757Z,10.50
2017-05-07T21:34:31.670Z,10.30
2017-05-07T21:37:01.586Z,10.30
2017-05-07T21:39:31.507Z,10.20
2017-05-07T21:42:01.436Z,10.10
2017-05-07T21:44:30.610Z,10.10
2017-05-07T21:47:00.749Z,10.00
2017-05-07T21:49:29.938Z,10.00
2017-05-07T21:51:59.880Z,9.90
2017-05-07T21:54:29.050Z,9.80
2017-05-07T21:56:58.983Z,9.80
2017-05-07T21:59:28.171Z,9.80
2017-05-07T22:01:58.082Z,9.80
2017-05-07T22:04:28.007Z,9.80
2017-05-07T22:06:57.183Z,9.90
2017-05-07T22:09:26.361Z,9.90
2017-05-07T22:11:55.529Z,9.90
2017-05-07T22:14:24.717Z,10.00
2017-05-07T22:16:53.887Z,9.90
2017-05-07T22:19:23.811Z,9.70
2017-05-07T22:21:53.727Z,9.80
2017-05-07T22:24:23.649Z,9.80
2017-05-07T22:26:52.822Z,9.70
2017-05-07T22:29:21.998Z,9.80
2017-05-07T22:31:51.165Z,9.80
2017-05-07T22:34:20.378Z,9.80
2017-05-07T22:36:49.546Z,9.80
2017-05-07T22:39:18.718Z,9.80
2017-05-07T22:41:48.641Z,9.80
2017-05-07T22:44:18.550Z,9.80
2017-05-07T22:46:48.483Z,9.70
2017-05-07T22:49:18.387Z,9.60
2017-05-07T22:51:48.305Z,9.60
2017-05-07T22:54:18.218Z,9.60
2017-05-07T22:56:48.137Z,9.60
2017-05-07T22:59:18.050Z,9.60
2017-05-07T23:01:47.964Z,9.60
2017-05-07T23:04:17.882Z,9.40
2017-05-07T23:06:47.817Z,9.30
2017-05-07T23:09:17.012Z,9.10
2017-05-07T23:11:46.186Z,9.20
2017-05-07T23:14:15.370Z,9.10
2017-05-07T23:16:44.536Z,9.00
2017-05-07T23:19:13.718Z,9.10
2017-05-07T23:21:42.885Z,9.10
2017-05-07T23:24:12.810Z,9.10
2017-05-07T23:26:42.721Z,9.00
2017-05-07T23:29:12.657Z,9.00
2017-05-07T23:31:41.821Z,9.00
2017-05-07T23:34:10.997Z,9.10
2017-05-07T23:36:40.185Z,9.10
2017-05-07T23:39:09.357Z,9.10
2017-05-07T23:41:38.544Z,9.10
2017-05-07T23:44:07.716Z,9.10
2017-05-07T23:46:36.886Z,9.10
2017-05-07T23:49:06.070Z,9.00
2017-05-07T23:51:35.242Z,9.00
2017-05-07T23:54:04.426Z,8.90
2017-05-07T23:56:34.341Z,8.90
2017-05-07T23:59:04.266Z,8.90
